Time;durP1;ratioP1;P1;durP2;ratioP2;P2;SDS_P1;SDS_P2;PMS_P1;PMS_P2;Temp;Humidity;BMP_temperature;BMP_pressure;BME280_temperature;BME280_humidity;BME280_pressure;Samples;Min_cycle;Max_cycle;Signal;HPM_P1;HPM_P2
2023/09/16 00:01:43;;;;;;;10.38;4.30;;;;;;;15.46;100.00;101163.41;5016321;28;20040;-72
2023/09/16 00:04:09;;;;;;;6.80;4.20;;;;;;;15.50;100.00;101162.84;5027966;28;20532;-71
2023/09/16 00:06:35;;;;;;;7.07;4.50;;;;;;;15.49;100.00;101155.78;5014908;28;20076;-70
2023/09/16 00:09:00;;;;;;;6.77;4.60;;;;;;;15.44;100.00;101158.19;5018805;28;20061;-71
2023/09/16 00:11:26;;;;;;;5.88;4.05;;;;;;;15.44;100.00;101157.38;5013728;28;20113;-71
2023/09/16 00:13:51;;;;;;;6.17;4.23;;;;;;;15.36;100.00;101145.69;5014941;28;20051;-71
2023/09/16 00:16:16;;;;;;;8.67;4.37;;;;;;;15.44;100.00;101163.59;5008817;28;20065;-71
2023/09/16 00:18:42;;;;;;;7.30;4.37;;;;;;;15.43;100.00;101156.53;5012746;28;20022;-71
2023/09/16 00:21:07;;;;;;;8.90;4.30;;;;;;;15.36;100.00;101159.13;5012605;28;20725;-72
2023/09/16 00:23:33;;;;;;;6.47;4.07;;;;;;;15.36;100.00;101155.59;5013515;28;20903;-71
2023/09/16 00:25:58;;;;;;;6.43;4.43;;;;;;;15.23;100.00;101156.22;5010931;28;20284;-71
2023/09/16 00:28:27;;;;;;;7.13;4.63;;;;;;;15.23;100.00;101172.38;5013022;28;20030;-71
2023/09/16 00:30:52;;;;;;;9.18;4.65;;;;;;;15.14;100.00;101171.59;5022613;28;20074;-71
2023/09/16 00:33:18;;;;;;;6.73;5.13;;;;;;;15.22;100.00;101180.59;5012034;28;20818;-71
2023/09/16 00:35:43;;;;;;;9.10;5.30;;;;;;;15.23;100.00;101179.59;5012750;28;20034;-71
2023/09/16 00:38:09;;;;;;;5.87;4.60;;;;;;;15.15;100.00;101175.97;5020465;28;20515;-71
2023/09/16 00:40:36;;;;;;;6.25;4.82;;;;;;;15.07;100.00;101184.09;5013850;28;20046;-71
2023/09/16 00:43:01;;;;;;;8.00;5.28;;;;;;;14.97;100.00;101194.28;5021037;28;20036;-70
2023/09/16 00:45:27;;;;;;;9.57;5.10;;;;;;;15.03;100.00;101196.25;5009557;28;20501;-72
2023/09/16 00:47:53;;;;;;;7.15;5.57;;;;;;;14.97;100.00;101205.03;5021538;28;20036;-71
2023/09/16 00:50:18;;;;;;;7.40;5.20;;;;;;;14.94;100.00;101208.91;5028868;28;20029;-72
2023/09/16 00:52:52;;;;;;;6.90;5.13;;;;;;;14.92;100.00;101220.88;5014892;28;20036;-71
2023/09/16 00:55:17;;;;;;;8.23;4.65;;;;;;;15.03;100.00;101215.06;5018966;28;20121;-71
2023/09/16 00:57:47;;;;;;;8.45;4.70;;;;;;;14.96;100.00;101224.84;5015464;28;20498;-71
2023/09/16 01:00:16;;;;;;;8.40;4.88;;;;;;;14.97;100.00;101223.84;5010916;28;20038;-71
2023/09/16 01:02:43;;;;;;;8.15;5.05;;;;;;;14.92;100.00;101212.81;5014397;28;20179;-71
2023/09/16 01:05:17;;;;;;;5.63;4.35;;;;;;;14.89;100.00;101213.16;5011615;28;20064;-71
2023/09/16 01:07:45;;;;;;;8.38;5.60;;;;;;;14.86;100.00;101219.72;5011171;28;20064;-71
2023/09/16 01:10:11;;;;;;;7.25;5.10;;;;;;;14.82;100.00;101222.94;5011747;28;20026;-71
2023/09/16 01:12:41;;;;;;;7.43;4.85;;;;;;;14.83;100.00;101213.88;5013872;28;20087;-71
2023/09/16 01:15:08;;;;;;;10.32;5.55;;;;;;;14.81;100.00;101218.59;5019325;28;20049;-71
2023/09/16 01:18:00;;;;;;;7.85;5.30;;;;;;;14.80;100.00;101227.66;5009018;28;20368;-72
2023/09/16 01:20:28;;;;;;;7.63;5.45;;;;;;;14.83;100.00;101232.69;5012283;28;20067;-70
2023/09/16 01:22:53;;;;;;;10.65;5.82;;;;;;;14.77;100.00;101226.16;5021405;28;20051;-71
2023/09/16 01:25:24;;;;;;;8.48;5.68;;;;;;;14.82;100.00;101241.75;5011519;28;20033;-72
2023/09/16 01:27:49;;;;;;;7.13;5.47;;;;;;;14.83;100.00;101230.00;5019929;28;20038;-71
2023/09/16 01:30:15;;;;;;;8.43;5.43;;;;;;;14.75;100.00;101225.53;5011564;28;20021;-71
2023/09/16 01:32:49;;;;;;;8.87;5.80;;;;;;;14.77;100.00;101239.59;5011747;28;20024;-71
2023/09/16 01:35:18;;;;;;;9.85;5.93;;;;;;;14.77;100.00;101244.97;5020411;28;20041;-71
2023/09/16 01:37:46;;;;;;;7.75;4.88;;;;;;;14.66;100.00;101256.16;5010979;28;20017;-71
2023/09/16 01:40:14;;;;;;;8.82;5.93;;;;;;;14.63;100.00;101261.88;5023269;28;20029;-71
2023/09/16 01:42:41;;;;;;;8.20;5.15;;;;;;;14.66;100.00;101265.06;5019479;28;20484;-71
2023/09/16 01:45:07;;;;;;;8.52;6.05;;;;;;;14.61;100.00;101259.38;5023529;28;20068;-71
2023/09/16 01:47:33;;;;;;;14.43;5.50;;;;;;;14.55;100.00;101260.91;5017277;28;20475;-72
2023/09/16 01:49:58;;;;;;;8.15;6.25;;;;;;;14.60;100.00;101270.28;5024751;28;20036;-71
2023/09/16 01:52:23;;;;;;;7.17;5.30;;;;;;;14.52;100.00;101266.59;5013383;28;20025;-71
2023/09/16 01:54:49;;;;;;;7.33;5.73;;;;;;;14.41;100.00;101276.91;5025133;28;20581;-70
2023/09/16 01:57:14;;;;;;;8.90;5.73;;;;;;;14.48;100.00;101270.66;5019427;28;20035;-70
2023/09/16 01:59:40;;;;;;;10.37;6.37;;;;;;;14.56;100.00;101288.59;5022458;28;20029;-71
2023/09/16 02:02:05;;;;;;;8.77;6.10;;;;;;;14.52;100.00;101287.25;5022766;28;20022;-71
2023/09/16 02:04:31;;;;;;;9.00;6.23;;;;;;;14.49;100.00;101293.81;5016344;28;20034;-71
2023/09/16 02:06:56;;;;;;;8.18;5.80;;;;;;;14.47;100.00;101281.56;5024132;28;20080;-71
2023/09/16 02:09:22;;;;;;;7.97;5.87;;;;;;;14.47;100.00;101286.94;5024277;28;20034;-71
2023/09/16 02:11:48;;;;;;;8.60;6.30;;;;;;;14.46;100.00;101293.31;5018271;28;20056;-72
2023/09/16 02:14:18;;;;;;;11.00;6.33;;;;;;;14.44;100.00;101298.88;5026366;28;20885;-71
2023/09/16 02:16:47;;;;;;;10.68;7.00;;;;;;;14.38;100.00;101299.56;5018715;28;20957;-70
2023/09/16 02:19:12;;;;;;;11.07;6.03;;;;;;;14.47;100.00;101300.34;5022573;28;20036;-72
2023/09/16 02:21:38;;;;;;;10.93;6.80;;;;;;;14.45;100.00;101280.91;5026179;28;20548;-71
2023/09/16 02:24:04;;;;;;;9.95;6.50;;;;;;;14.40;100.00;101281.44;5023015;28;20021;-71
2023/09/16 02:26:29;;;;;;;7.78;6.00;;;;;;;14.35;100.00;101298.09;5020751;28;20472;-72
2023/09/16 02:28:55;;;;;;;6.57;5.40;;;;;;;14.36;100.00;101294.38;5016602;28;20104;-70
2023/09/16 02:31:20;;;;;;;7.77;5.63;;;;;;;14.36;100.00;101297.06;5023893;28;20025;-71
2023/09/16 02:33:45;;;;;;;11.97;6.37;;;;;;;14.29;100.00;101298.75;5025495;28;20026;-71
2023/09/16 02:36:11;;;;;;;10.47;6.33;;;;;;;14.33;100.00;101296.59;5022717;28;20038;-71
2023/09/16 02:38:36;;;;;;;9.73;6.27;;;;;;;14.31;100.00;101294.06;5025777;28;20048;-71
2023/09/16 02:41:03;;;;;;;10.27;6.47;;;;;;;14.35;100.00;101291.84;5016483;28;20017;-71
2023/09/16 02:43:29;;;;;;;10.60;6.82;;;;;;;14.28;100.00;101288.19;5024054;28;20080;-71
2023/09/16 02:45:58;;;;;;;10.60;6.97;;;;;;;14.30;100.00;101273.56;5023669;28;20460;-71
2023/09/16 02:48:23;;;;;;;12.35;7.18;;;;;;;14.22;100.00;101278.97;5023313;28;20276;-71
2023/09/16 02:50:49;;;;;;;9.02;6.57;;;;;;;14.22;100.00;101275.47;5024161;28;20032;-70
2023/09/16 02:53:16;;;;;;;8.60;6.57;;;;;;;14.21;100.00;101285.38;5017188;28;20036;-71
2023/09/16 02:55:41;;;;;;;8.52;5.90;;;;;;;14.25;100.00;101281.31;5025910;28;20052;-71
2023/09/16 02:58:07;;;;;;;9.77;7.70;;;;;;;14.19;100.00;101265.06;5021483;28;20061;-71
2023/09/16 03:00:33;;;;;;;10.27;6.38;;;;;;;14.22;100.00;101268.25;5016759;28;20025;-71
2023/09/16 03:02:59;;;;;;;11.73;7.22;;;;;;;14.15;100.00;101265.41;5023279;28;20043;-70
2023/09/16 03:05:25;;;;;;;8.45;6.38;;;;;;;14.13;100.00;101271.97;5015145;28;20026;-71
2023/09/16 03:07:50;;;;;;;10.68;6.10;;;;;;;14.10;100.00;101270.47;5023205;28;20029;-71
2023/09/16 03:10:16;;;;;;;12.93;7.07;;;;;;;14.06;100.00;101273.66;5022643;28;20036;-71
2023/09/16 03:12:42;;;;;;;9.13;7.88;;;;;;;14.02;100.00;101269.66;5026248;28;20028;-70
2023/09/16 03:15:08;;;;;;;13.07;6.23;;;;;;;14.01;100.00;101282.25;5020779;28;20034;-71
2023/09/16 03:17:33;;;;;;;11.23;6.97;;;;;;;13.96;100.00;101271.19;5024101;28;20366;-71
2023/09/16 03:19:58;;;;;;;13.57;8.00;;;;;;;13.99;100.00;101286.09;5022399;28;20029;-71
2023/09/16 03:22:24;;;;;;;7.93;6.00;;;;;;;13.99;100.00;101286.94;5020099;28;20515;-70
2023/09/16 03:24:49;;;;;;;9.23;6.20;;;;;;;13.92;100.00;101270.69;5023208;28;20271;-70
2023/09/16 03:27:15;;;;;;;10.30;7.17;;;;;;;13.85;100.00;101264.31;5020467;28;20038;-71
2023/09/16 03:29:41;;;;;;;9.20;7.50;;;;;;;13.84;100.00;101289.50;5021528;28;20025;-71
2023/09/16 03:32:06;;;;;;;10.30;6.97;;;;;;;13.89;100.00;101292.50;5022879;28;20060;-70
2023/09/16 03:34:33;;;;;;;8.50;6.65;;;;;;;13.86;100.00;101292.00;5020675;28;20022;-71
2023/09/16 03:36:58;;;;;;;13.50;8.57;;;;;;;13.87;100.00;101296.38;5022826;28;20094;-70
2023/09/16 03:39:24;;;;;;;10.45;7.65;;;;;;;13.82;100.00;101293.38;5021682;22;20497;-73
2023/09/16 03:41:50;;;;;;;10.55;7.05;;;;;;;13.84;100.00;101300.22;5022266;28;20057;-73
2023/09/16 03:44:16;;;;;;;14.10;7.88;;;;;;;13.84;100.00;101283.28;5006118;28;20033;-73
2023/09/16 03:46:42;;;;;;;11.10;7.43;;;;;;;13.82;100.00;101283.47;5005732;28;20408;-73
2023/09/16 03:49:08;;;;;;;8.60;6.95;;;;;;;13.80;100.00;101284.63;5005368;28;20431;-73
2023/09/16 03:51:36;;;;;;;11.43;7.47;;;;;;;13.82;100.00;101274.56;5009987;28;20026;-73
2023/09/16 03:54:02;;;;;;;11.45;8.00;;;;;;;13.76;100.00;101281.44;5010572;28;20299;-74
2023/09/16 03:56:28;;;;;;;;;;;;;;;13.80;100.00;101277.41;5004541;28;20022;-74
2023/09/16 03:58:53;;;;;;;;;;;;;;;13.76;100.00;101267.19;5009694;28;20505;-74
2023/09/16 04:01:23;;;;;;;8.88;7.07;;;;;;;13.71;100.00;101256.97;5008645;28;19913;-74
2023/09/16 04:03:49;;;;;;;10.68;6.47;;;;;;;13.61;100.00;101254.47;5008774;28;20036;-73
2023/09/16 04:06:14;;;;;;;10.95;7.18;;;;;;;13.66;100.00;101264.69;4999464;28;20029;-73
2023/09/16 04:08:40;;;;;;;12.27;7.43;;;;;;;13.66;100.00;101264.69;5009002;28;20470;-74
2023/09/16 04:11:06;;;;;;;9.57;6.90;;;;;;;13.55;100.00;101247.09;5004867;28;20480;-73
2023/09/16 04:13:32;;;;;;;12.98;7.80;;;;;;;13.55;100.00;101262.38;5009027;28;20041;-74
2023/09/16 04:15:57;;;;;;;12.50;7.67;;;;;;;13.49;100.00;101247.78;5005053;28;20029;-73
2023/09/16 04:18:24;;;;;;;9.88;6.97;;;;;;;13.56;100.00;101258.69;5008763;28;20287;-74
2023/09/16 04:20:55;;;;;;;9.53;7.77;;;;;;;13.60;100.00;101268.06;4996405;28;20084;-73
2023/09/16 04:23:21;;;;;;;13.68;7.85;;;;;;;13.55;100.00;101265.88;5010199;28;20033;-73
2023/09/16 04:25:46;;;;;;;11.25;7.78;;;;;;;13.54;100.00;101271.44;5008868;28;20017;-73
2023/09/16 04:28:12;;;;;;;10.80;8.07;;;;;;;13.51;100.00;101275.28;5007418;28;20068;-74
2023/09/16 04:30:45;;;;;;;9.80;7.33;;;;;;;13.52;100.00;101271.59;5006143;28;20026;-73
2023/09/16 04:33:11;;;;;;;16.90;8.23;;;;;;;13.46;100.00;101259.69;4999107;28;20281;-75
2023/09/16 04:35:45;;;;;;;8.67;7.13;;;;;;;13.36;100.00;101242.94;5003703;28;20029;-74
2023/09/16 04:38:12;;;;;;;7.65;6.32;;;;;;;13.30;100.00;101243.63;5002365;28;20026;-74
2023/09/16 04:40:40;;;;;;;10.38;7.32;;;;;;;13.32;100.00;101259.53;5009302;28;20060;-74
2023/09/16 04:43:06;;;;;;;12.90;7.13;;;;;;;13.31;100.00;101266.72;5008955;28;20522;-74
2023/09/16 04:45:32;;;;;;;12.40;7.53;;;;;;;13.34;100.00;101271.75;5006513;28;20025;-74
2023/09/16 04:47:57;;;;;;;10.97;7.73;;;;;;;13.34;100.00;101271.75;5010056;28;20037;-74
2023/09/16 04:50:25;;;;;;;9.45;7.78;;;;;;;13.45;100.00;101278.63;4982647;28;20022;-74
2023/09/16 04:52:51;;;;;;;11.50;7.65;;;;;;;13.50;100.00;101279.78;5008454;28;20029;-73
2023/09/16 04:55:16;;;;;;;11.10;7.97;;;;;;;13.52;100.00;101283.16;5012639;28;20021;-74
2023/09/16 04:57:42;;;;;;;14.80;8.10;;;;;;;13.60;100.00;101276.09;4998466;28;20034;-74
2023/09/16 05:00:08;;;;;;;11.17;7.47;;;;;;;13.48;100.00;101263.03;5005157;28;20022;-74
2023/09/16 05:02:34;;;;;;;13.15;7.90;;;;;;;13.57;100.00;101276.44;5009207;28;20040;-73
2023/09/16 05:05:00;;;;;;;12.25;7.25;;;;;;;13.58;100.00;101267.38;5012313;28;20397;-74
2023/09/16 05:07:27;;;;;;;10.35;6.30;;;;;;;13.54;100.00;101264.22;5014830;28;20029;-74
2023/09/16 05:09:53;;;;;;;10.20;7.32;;;;;;;13.55;100.00;101252.47;5007874;28;20026;-74
2023/09/16 05:12:18;;;;;;;8.70;6.50;;;;;;;13.59;100.00;101256.50;5011576;28;20040;-74
2023/09/16 05:14:45;;;;;;;9.87;7.40;;;;;;;13.52;100.00;101247.44;5003580;28;20384;-74
2023/09/16 05:17:10;;;;;;;22.95;7.32;;;;;;;13.58;100.00;101248.59;5002811;28;20042;-74
2023/09/16 05:19:36;;;;;;;11.65;7.50;;;;;;;13.64;100.00;101248.75;5007912;28;20021;-74
2023/09/16 05:22:03;;;;;;;10.90;6.90;;;;;;;13.63;100.00;101233.69;5008602;28;20065;-74
2023/09/16 05:24:31;;;;;;;10.02;7.25;;;;;;;13.67;100.00;101242.22;5006223;28;20113;-74
2023/09/16 05:26:57;;;;;;;11.35;7.85;;;;;;;13.63;100.00;101235.53;5007515;28;20124;-74
2023/09/16 05:29:22;;;;;;;11.98;7.75;;;;;;;13.65;100.00;101238.88;5007698;28;20460;-74
2023/09/16 05:31:48;;;;;;;8.67;6.60;;;;;;;13.75;100.00;101231.47;4994804;28;20088;-74
2023/09/16 05:34:14;;;;;;;13.98;7.00;;;;;;;13.74;100.00;101229.78;5011193;28;20694;-74
2023/09/16 05:36:39;;;;;;;10.57;6.77;;;;;;;13.82;100.00;101227.09;5003624;28;20175;-74
2023/09/16 05:39:04;;;;;;;24.43;7.13;;;;;;;13.88;100.00;101231.78;5004130;28;20053;-74
2023/09/16 05:41:30;;;;;;;13.40;6.83;;;;;;;13.90;100.00;101212.81;5010434;28;20025;-74
2023/09/16 05:43:56;;;;;;;6.95;5.57;;;;;;;13.94;100.00;101219.50;5007253;28;20032;-74
2023/09/16 05:46:23;;;;;;;7.43;6.07;;;;;;;13.83;100.00;101212.66;5010813;28;20026;-74
2023/09/16 05:48:49;;;;;;;;;;;;;;;14.02;100.00;101218.63;5003981;28;20034;-74
2023/09/16 05:51:15;;;;;;;11.57;6.40;;;;;;;14.15;100.00;101210.88;5014453;28;20446;-74
2023/09/16 05:53:41;;;;;;;8.13;5.93;;;;;;;14.20;100.00;101203.13;5004310;28;20025;-74
2023/09/16 05:56:08;;;;;;;10.77;5.95;;;;;;;14.23;100.00;101200.09;5005564;28;20025;-74
2023/09/16 05:58:40;;;;;;;13.20;5.95;;;;;;;14.50;100.00;101214.06;5010906;28;20038;-74
2023/09/16 06:01:06;;;;;;;7.93;5.97;;;;;;;15.24;100.00;101194.72;5008698;28;20443;-74
2023/09/16 06:03:31;;;;;;;9.00;5.33;;;;;;;16.17;100.00;101161.06;5008982;28;20022;-74
2023/09/16 06:05:58;;;;;;;8.60;4.63;;;;;;;16.54;100.00;101064.84;5011520;28;20056;-75
2023/09/16 06:08:24;;;;;;;7.82;4.82;;;;;;;17.27;100.00;100976.38;5005166;28;20465;-75
2023/09/16 06:10:50;;;;;;;9.02;4.60;;;;;;;16.43;100.00;100802.13;5006964;28;20188;-74
2023/09/16 06:13:15;;;;;;;10.03;4.83;;;;;;;16.61;100.00;100866.28;4997295;28;20108;-74
2023/09/16 06:15:43;;;;;;;9.38;4.63;;;;;;;17.68;100.00;100827.00;4997664;28;20373;-75
2023/09/16 06:18:08;;;;;;;10.10;5.03;;;;;;;17.59;100.00;100644.66;5004844;28;20029;-74
2023/09/16 06:20:34;;;;;;;5.93;4.90;;;;;;;17.10;100.00;100514.63;5005270;28;20504;-76
2023/09/16 06:23:02;;;;;;;8.17;4.47;;;;;;;17.22;100.00;100555.28;5003419;28;20025;-75
2023/09/16 06:25:29;;;;;;;10.20;5.15;;;;;;;17.24;100.00;100586.41;5006903;28;20034;-74
2023/09/16 06:27:58;;;;;;;7.07;4.82;;;;;;;17.69;100.00;100535.19;5002988;28;20496;-74
2023/09/16 06:30:23;;;;;;;8.63;4.47;;;;;;;17.73;100.00;100457.28;5012356;28;20415;-74
2023/09/16 06:32:49;;;;;;;9.63;4.82;;;;;;;17.45;100.00;100436.88;4997415;28;20392;-75
2023/09/16 06:35:14;;;;;;;11.40;4.85;;;;;;;17.72;100.00;100505.06;5003752;28;20092;-75
2023/09/16 06:37:40;;;;;;;7.93;4.70;;;;;;;17.40;100.00;100485.28;5010173;28;20025;-74
2023/09/16 06:40:06;;;;;;;4.70;3.88;;;;;;;17.84;100.00;100545.75;5007784;28;20120;-75
2023/09/16 06:42:31;;;;;;;;;;;;;;;18.29;100.00;100366.53;5009372;28;20112;-74
2023/09/16 06:45:00;;;;;;;8.00;4.65;;;;;;;17.93;100.00;100473.41;5013514;28;19913;-74
2023/09/16 06:47:26;;;;;;;8.32;4.80;;;;;;;17.44;100.00;100323.75;5012697;28;20028;-74
2023/09/16 06:49:52;;;;;;;8.43;3.75;;;;;;;17.95;100.00;100527.19;5007543;28;20029;-75
2023/09/16 06:52:17;;;;;;;5.93;4.53;;;;;;;18.53;100.00;100403.50;5014281;28;20101;-75
2023/09/16 06:54:43;;;;;;;5.83;4.00;;;;;;;17.64;100.00;100305.53;5008482;28;20026;-74
2023/09/16 06:57:08;;;;;;;5.18;3.75;;;;;;;17.82;100.00;100441.72;5011053;28;20515;-74
2023/09/16 06:59:33;;;;;;;7.40;4.40;;;;;;;17.81;100.00;100349.06;5008099;28;20034;-76
2023/09/16 07:01:59;;;;;;;7.13;4.90;;;;;;;17.38;100.00;100417.19;5007994;28;20088;-74
2023/09/16 07:04:27;;;;;;;7.73;4.33;;;;;;;17.78;100.00;100478.25;5010758;28;20247;-74
2023/09/16 07:06:52;;;;;;;6.10;4.32;;;;;;;17.86;100.00;100489.66;5009720;28;20028;-74
2023/09/16 07:09:18;;;;;;;5.93;4.47;;;;;;;17.78;100.00;100508.78;5010811;28;20514;-76
2023/09/16 07:11:44;;;;;;;9.80;4.93;;;;;;;17.41;100.00;100407.84;5010011;28;20034;-74
2023/09/16 07:14:09;;;;;;;6.35;4.18;;;;;;;17.47;100.00;100561.66;5012052;28;20150;-74
2023/09/16 07:16:40;;;;;;;5.13;4.37;;;;;;;17.84;100.00;100658.31;5009137;28;20500;-74
2023/09/16 07:19:06;;;;;;;6.60;4.05;;;;;;;18.65;100.00;100670.44;5006083;28;20408;-74
2023/09/16 07:21:31;;;;;;;6.90;5.10;;;;;;;17.66;100.00;100397.94;5010513;28;20022;-73
2023/09/16 07:24:03;;;;;;;6.77;4.83;;;;;;;17.77;100.00;100573.78;5013570;28;20048;-74
2023/09/16 07:26:29;;;;;;;6.65;4.38;;;;;;;17.24;100.00;100529.75;5008498;28;20046;-75
2023/09/16 07:28:54;;;;;;;12.13;5.25;;;;;;;17.36;100.00;100637.84;5007603;28;20610;-75
2023/09/16 07:31:20;;;;;;;6.15;4.28;;;;;;;18.19;100.00;100734.50;5010426;28;20108;-74
2023/09/16 07:33:46;;;;;;;7.33;4.47;;;;;;;17.61;100.00;100623.69;5010124;28;20029;-74
2023/09/16 07:36:11;;;;;;;7.85;4.38;;;;;;;18.07;100.00;100647.84;5012153;28;20397;-74
2023/09/16 07:38:36;;;;;;;8.37;4.63;;;;;;;18.02;100.00;100590.13;5007449;28;20076;-75
2023/09/16 07:41:02;;;;;;;8.97;4.00;;;;;;;18.97;100.00;100733.50;5013749;28;20034;-75
2023/09/16 07:43:27;;;;;;;5.70;4.70;;;;;;;18.44;100.00;100312.94;5013028;28;20496;-74
2023/09/16 07:45:52;;;;;;;7.47;4.23;;;;;;;18.15;100.00;100430.66;5010583;28;20629;-74
2023/09/16 07:48:18;;;;;;;8.23;4.13;;;;;;;18.82;100.00;100576.94;5006833;28;20050;-74
2023/09/16 07:50:45;;;;;;;8.60;4.30;;;;;;;19.17;100.00;100493.38;5013028;28;20333;-74
2023/09/16 07:53:10;;;;;;;6.40;4.47;;;;;;;19.85;100.00;100306.47;5005172;28;20030;-73
2023/09/16 07:55:35;;;;;;;7.90;4.33;;;;;;;19.23;100.00;100204.78;5009510;28;20519;-75
2023/09/16 07:58:01;;;;;;;6.43;3.93;;;;;;;20.29;100.00;100329.44;5007032;28;20315;-74
2023/09/16 08:00:26;;;;;;;6.50;4.20;;;;;;;20.47;100.00;100094.50;5009733;28;20053;-74
2023/09/16 08:02:51;;;;;;;5.80;4.00;;;;;;;20.50;100.00;100070.41;5008610;28;20503;-74
2023/09/16 08:05:17;;;;;;;4.67;4.10;;;;;;;20.56;100.00;100066.78;5006397;28;20045;-74
2023/09/16 08:07:42;;;;;;;10.80;4.40;;;;;;;21.77;100.00;100046.28;5006534;28;20042;-74
2023/09/16 08:10:08;;;;;;;8.10;4.37;;;;;;;20.31;100.00;99879.25;5009462;28;20160;-74
2023/09/16 08:12:33;;;;;;;5.80;4.13;;;;;;;21.08;100.00;99922.69;5001127;28;20029;-74
2023/09/16 08:14:59;;;;;;;10.77;4.57;;;;;;;20.59;100.00;99841.19;5012012;28;20493;-73
2023/09/16 08:17:24;;;;;;;6.40;4.53;;;;;;;21.15;100.00;99924.41;5020093;28;20440;-75
2023/09/16 08:19:50;;;;;;;7.57;4.50;;;;;;;20.82;100.00;99872.69;5026329;28;20083;-74
2023/09/16 08:22:15;;;;;;;14.77;6.03;;;;;;;20.44;100.00;99724.41;5020969;28;20530;-74
2023/09/16 08:24:40;;;;;;;7.90;4.23;;;;;;;20.12;100.00;100006.88;5023851;28;20370;-73
2023/09/16 08:27:06;;;;;;;10.07;4.37;;;;;;;20.94;100.00;99969.44;5012870;28;20092;-74
2023/09/16 08:29:31;;;;;;;5.20;4.13;;;;;;;20.78;100.00;99969.19;5024135;28;20037;-74
2023/09/16 08:31:56;;;;;;;6.03;3.17;;;;;;;20.92;100.00;99926.25;5026423;28;20096;-74
2023/09/16 08:34:22;;;;;;;7.03;4.80;;;;;;;20.99;100.00;99913.34;5025950;28;20057;-74
2023/09/16 08:36:47;;;;;;;6.57;4.30;;;;;;;21.34;100.00;99779.09;5023779;28;20036;-75
2023/09/16 08:39:12;;;;;;;5.37;3.77;;;;;;;21.95;100.00;100066.88;5025680;28;20779;-75
2023/09/16 08:42:03;;;;;;;4.70;3.13;;;;;;;23.97;100.00;99984.47;5026059;28;20034;-75
2023/09/16 08:44:35;;;;;;;6.82;3.65;;;;;;;23.65;96.79;99469.69;5025463;28;20043;-75
2023/09/16 08:47:09;;;;;;;6.03;3.85;;;;;;;22.42;95.76;99285.06;5011419;28;20029;-74
2023/09/16 08:49:41;;;;;;;5.40;3.55;;;;;;;23.08;100.00;99891.00;5025745;28;20032;-75
2023/09/16 08:52:10;;;;;;;7.65;4.00;;;;;;;22.85;94.17;99326.25;5020335;28;20469;-74
2023/09/16 08:54:39;;;;;;;11.93;3.97;;;;;;;23.34;94.71;99622.31;5017896;28;20416;-75
2023/09/16 08:57:05;;;;;;;5.13;3.38;;;;;;;22.69;95.64;99559.47;5012597;28;20044;-74
2023/09/16 08:59:31;;;;;;;6.47;3.42;;;;;;;24.36;95.08;99922.06;5008090;28;20037;-75
2023/09/16 09:01:57;;;;;;;3.85;3.08;;;;;;;24.87;91.30;99699.25;5011997;28;20399;-75
2023/09/16 09:04:23;;;;;;;6.07;3.60;;;;;;;25.53;86.63;99491.09;5007708;28;20025;-75
2023/09/16 09:06:49;;;;;;;4.47;3.42;;;;;;;25.30;83.56;99257.84;5014705;28;20028;-74
2023/09/16 09:09:14;;;;;;;7.70;3.50;;;;;;;24.66;84.54;99265.50;5010609;28;20480;-74
2023/09/16 09:11:40;;;;;;;7.70;3.60;;;;;;;24.87;85.11;99431.75;5016584;28;20029;-75
2023/09/16 09:14:09;;;;;;;;;;;;;;;25.58;83.64;99510.16;5014151;28;20018;-75
2023/09/16 09:16:38;;;;;;;8.63;3.17;;;;;;;25.02;81.58;99188.59;5015601;28;19943;-75
2023/09/16 09:19:04;;;;;;;4.95;3.38;;;;;;;25.20;79.92;99111.34;5019757;28;20136;-75
2023/09/16 09:21:31;;;;;;;5.47;3.45;;;;;;;24.88;81.84;99294.16;5014257;28;20033;-74
2023/09/16 09:23:58;;;;;;;5.85;3.50;;;;;;;24.89;82.05;99336.72;5016167;28;20018;-74
2023/09/16 09:26:24;;;;;;;4.85;3.45;;;;;;;25.72;80.63;99461.06;5013484;28;20075;-75
2023/09/16 09:28:49;;;;;;;4.25;3.45;;;;;;;26.08;79.16;99425.03;5009519;28;20044;-75
2023/09/16 09:31:15;;;;;;;7.57;3.20;;;;;;;24.75;77.18;98832.59;5023621;28;20492;-74
2023/09/16 09:33:41;;;;;;;8.25;3.38;;;;;;;25.61;78.68;99329.19;5019564;28;20035;-75
2023/09/16 09:36:17;;;;;;;6.03;3.28;;;;;;;25.75;77.59;99295.66;5022326;28;20034;-75
2023/09/16 09:38:43;;;;;;;;;;;;;;;25.80;77.44;99270.97;5044211;23;20050;-88
2023/09/16 09:41:09;;;;;;;8.77;3.50;;;;;;;25.60;77.08;99234.69;5045303;28;19917;-89
2023/09/16 09:43:34;;;;;;;5.25;3.28;;;;;;;25.57;76.74;99221.63;5032111;28;20025;-88
2023/09/16 09:45:59;;;;;;;7.05;3.45;;;;;;;26.14;76.82;99371.06;5032218;28;20123;-88
2023/09/16 09:48:25;;;;;;;9.02;3.20;;;;;;;25.66;75.30;99121.47;5017068;28;20052;-90
2023/09/16 09:50:51;;;;;;;4.15;3.33;;;;;;;25.21;76.66;99147.63;5015071;28;20048;-88
2023/09/16 09:53:16;;;;;;;4.45;2.88;;;;;;;25.33;75.32;99067.97;5047194;28;20036;-89
2023/09/16 09:55:43;;;;;;;4.70;3.45;;;;;;;26.03;76.03;99412.25;5027126;28;20037;-87
2023/09/16 09:58:09;;;;;;;6.57;2.72;;;;;;;25.63;74.62;99072.06;5029526;28;20475;-89
2023/09/16 10:00:46;;;;;;;4.78;2.88;;;;;;;24.79;74.59;98914.66;5033407;28;20044;-89
2023/09/16 10:03:12;;;;;;;6.45;3.65;;;;;;;24.91;78.34;99409.06;5018365;28;20522;-89
2023/09/16 10:05:38;;;;;;;4.18;3.35;;;;;;;23.54;77.33;98790.75;5031129;28;20029;-90
2023/09/16 10:08:13;;;;;;;7.82;3.58;;;;;;;24.72;78.68;99425.31;5025501;28;20040;-90
2023/09/16 10:10:39;;;;;;;6.77;3.30;;;;;;;25.27;78.39;99483.19;5043882;28;20041;-89
2023/09/16 10:13:05;;;;;;;3.80;2.60;;;;;;;26.35;75.78;99539.22;5038821;28;20989;-90
2023/09/16 10:15:39;;;;;;;11.52;3.42;;;;;;;25.13;75.09;99050.81;5043850;28;20038;-89
2023/09/16 10:18:06;;;;;;;4.32;3.30;;;;;;;25.58;73.32;99015.56;5023756;28;20041;-91
2023/09/16 10:20:37;;;;;;;6.93;3.58;;;;;;;25.96;73.78;99266.91;5012604;28;20036;-90
2023/09/16 10:23:20;;;;;;;4.85;3.67;;;;;;;25.47;72.50;98919.38;5028070;28;20092;-90
2023/09/16 10:25:50;;;;;;;5.13;3.28;;;;;;;25.64;73.13;99060.03;5038812;28;20899;-89
2023/09/16 10:28:32;;;;;;;5.00;3.25;;;;;;;25.75;71.81;98989.56;5029782;28;20038;-91
2023/09/16 10:30:59;;;;;;;4.18;3.15;;;;;;;26.09;70.54;98948.09;5025719;28;20037;-89
2023/09/16 10:33:30;;;;;;;7.05;3.30;;;;;;;25.38;70.56;98749.13;5037226;28;20029;-93
2023/09/16 10:36:15;;;;;;;7.28;3.00;;;;;;;27.08;68.86;99110.50;5027969;28;20033;-90
2023/09/16 10:38:52;;;;;;;;;;;;;;;26.92;68.20;98956.72;5039647;28;20029;-89
2023/09/16 10:41:22;;;;;;;6.50;2.90;;;;;;;27.52;64.43;98632.00;5051798;28;19920;-90
2023/09/16 10:43:49;;;;;;;5.63;2.95;;;;;;;26.59;64.50;98428.09;5031930;28;20028;-90
2023/09/16 10:46:21;;;;;;;4.75;3.38;;;;;;;26.63;63.36;98269.56;5039932;28;20029;-89
2023/09/16 10:48:46;;;;;;;3.65;3.08;;;;;;;26.88;66.79;98914.69;5018665;28;20456;-90
2023/09/16 10:51:21;;;;;;;3.67;3.15;;;;;;;26.88;66.79;98917.44;5024519;28;20076;-90
2023/09/16 10:53:54;;;;;;;4.05;2.65;;;;;;;26.01;63.91;98184.19;5027040;28;20030;-90
2023/09/16 10:56:28;;;;;;;7.07;3.67;;;;;;;24.94;68.42;98526.81;5027843;28;20513;-88
2023/09/16 10:59:17;;;;;;;6.30;3.17;;;;;;;25.19;67.27;98517.22;5029899;28;20029;-89
2023/09/16 11:02:13;;;;;;;4.15;3.00;;;;;;;25.48;65.98;98401.16;5031525;28;20033;-88
2023/09/16 11:04:39;;;;;;;3.20;2.72;;;;;;;25.72;67.02;98708.69;5027751;28;20150;-90
2023/09/16 11:07:11;;;;;;;10.75;3.30;;;;;;;25.20;66.01;98294.13;5036324;28;20033;-90
2023/09/16 11:09:43;;;;;;;3.60;3.30;;;;;;;25.78;65.57;98589.91;5037038;28;20029;-90
2023/09/16 11:12:16;;;;;;;6.70;3.22;;;;;;;26.26;63.61;98373.09;5034757;28;20108;-90
2023/09/16 11:14:47;;;;;;;4.35;2.63;;;;;;;26.70;64.20;98644.78;5029228;28;20112;-90
2023/09/16 11:17:18;;;;;;;2.97;2.30;;;;;;;26.26;64.70;98561.78;5032600;28;20035;-90
2023/09/16 11:19:53;;;;;;;3.53;2.90;;;;;;;26.56;62.73;98395.91;5029189;28;20083;-91
2023/09/16 11:22:26;;;;;;;4.28;2.80;;;;;;;26.73;62.00;98416.97;5054911;28;20025;-90